createdAt,value
2023-03-29T00:01:01.066Z,101102.68
2023-03-29T00:03:31.054Z,101104.91
2023-03-29T00:06:03.568Z,101103.44
2023-03-29T00:08:34.238Z,101107.48
2023-03-29T00:11:02.760Z,101107.86
2023-03-29T00:13:31.472Z,101109.70
2023-03-29T00:15:59.758Z,101109.23
2023-03-29T00:18:28.126Z,101110.43
2023-03-29T00:20:57.729Z,101112.43
2023-03-29T00:23:26.624Z,101110.80
2023-03-29T00:25:56.030Z,101110.09
2023-03-29T00:28:24.302Z,101111.82
2023-03-29T00:30:52.879Z,101115.80
2023-03-29T00:33:21.880Z,101115.95
2023-03-29T00:35:53.700Z,101115.52
2023-03-29T00:38:22.331Z,101117.89
2023-03-29T00:40:50.808Z,101112.52
2023-03-29T00:43:19.130Z,101113.13
2023-03-29T00:45:47.569Z,101116.06
2023-03-29T00:48:18.301Z,101117.34
2023-03-29T00:50:59.872Z,101116.00
2023-03-29T00:53:33.700Z,101120.45
2023-03-29T00:56:14.570Z,101122.50
2023-03-29T00:59:03.879Z,101123.99
2023-03-29T01:01:42.456Z,101126.09
2023-03-29T01:04:34.497Z,101128.97
2023-03-29T01:07:05.709Z,101132.98
2023-03-29T01:09:37.691Z,101132.24
2023-03-29T01:12:14.349Z,101128.05
2023-03-29T01:14:50.844Z,101126.22
2023-03-29T01:17:22.197Z,101127.56
2023-03-29T01:19:58.329Z,101129.70
2023-03-29T01:22:45.074Z,101130.98
2023-03-29T01:25:13.449Z,101136.67
2023-03-29T01:27:47.867Z,101137.38
2023-03-29T01:30:35.494Z,101139.16
2023-03-29T01:33:10.807Z,101136.41
2023-03-29T01:36:01.922Z,101138.52
2023-03-29T01:38:51.021Z,101138.35
2023-03-29T01:41:20.525Z,101137.30
2023-03-29T01:44:10.469Z,101138.23
2023-03-29T01:46:53.231Z,101139.10
2023-03-29T01:49:36.364Z,101139.89
2023-03-29T01:52:38.245Z,101141.42
2023-03-29T01:55:13.489Z,101141.39
2023-03-29T01:57:43.886Z,101143.27
2023-03-29T02:00:15.736Z,101145.56
2023-03-29T02:02:46.370Z,101146.09
2023-03-29T02:05:16.519Z,101147.35
2023-03-29T02:07:46.724Z,101147.33
2023-03-29T02:10:16.750Z,101148.37
2023-03-29T02:12:45.116Z,101149.50
2023-03-29T02:15:16.160Z,101154.27
2023-03-29T02:17:44.903Z,101159.08
2023-03-29T02:20:22.766Z,101162.25
2023-03-29T02:23:13.961Z,101163.66
2023-03-29T02:25:43.878Z,101167.08
2023-03-29T02:28:13.284Z,101170.65
2023-03-29T02:31:05.673Z,101176.65
2023-03-29T02:33:52.328Z,101173.77
2023-03-29T02:36:29.666Z,101178.70
2023-03-29T02:39:00.904Z,101182.01
2023-03-29T02:41:29.460Z,101185.83
2023-03-29T02:43:59.062Z,101185.11
2023-03-29T02:46:28.077Z,101187.35
2023-03-29T02:48:57.766Z,101186.69
2023-03-29T02:51:31.169Z,101193.76
2023-03-29T02:54:15.946Z,101190.58
2023-03-29T02:56:50.051Z,101193.89
2023-03-29T02:59:22.953Z,101191.71
2023-03-29T03:01:52.983Z,101191.79
2023-03-29T03:04:21.330Z,101195.80
2023-03-29T03:06:50.344Z,101195.16
2023-03-29T03:09:19.512Z,101194.93
2023-03-29T03:11:47.892Z,101199.10
2023-03-29T03:14:17.087Z,101204.14
2023-03-29T03:16:46.187Z,101206.20
2023-03-29T03:19:15.280Z,101205.00
2023-03-29T03:21:43.557Z,101208.62
2023-03-29T03:24:11.838Z,101210.98
2023-03-29T03:26:40.211Z,101212.50
2023-03-29T03:29:08.588Z,101214.90
2023-03-29T03:31:37.047Z,101216.52
2023-03-29T03:34:05.450Z,101216.67
2023-03-29T03:36:34.959Z,101218.23
2023-03-29T03:39:06.105Z,101217.86
2023-03-29T03:41:35.108Z,101220.36
2023-03-29T03:44:03.370Z,101220.02
2023-03-29T03:46:31.755Z,101221.64
2023-03-29T03:49:00.541Z,101223.73
2023-03-29T03:51:28.711Z,101231.79
2023-03-29T03:53:57.196Z,101232.70
2023-03-29T03:56:26.186Z,101235.77
2023-03-29T03:58:54.462Z,101239.71
2023-03-29T04:01:24.179Z,101241.17
2023-03-29T04:03:52.480Z,101243.46
2023-03-29T04:06:21.035Z,101243.73
2023-03-29T04:08:49.315Z,101244.70
2023-03-29T04:11:17.693Z,101246.55
2023-03-29T04:13:46.993Z,101254.40
2023-03-29T04:16:15.726Z,101257.72
2023-03-29T04:18:44.334Z,101256.85
2023-03-29T04:21:13.060Z,101255.13
2023-03-29T04:23:43.243Z,101254.09
2023-03-29T04:26:12.471Z,101253.34
2023-03-29T04:28:41.572Z,101255.43
2023-03-29T04:31:14.694Z,101258.71
2023-03-29T04:33:43.363Z,101259.39
2023-03-29T04:36:11.673Z,101257.83
2023-03-29T04:38:43.375Z,101258.23
2023-03-29T04:41:15.868Z,101257.23
2023-03-29T04:43:46.845Z,101259.91
2023-03-29T04:46:15.884Z,101261.88
2023-03-29T04:48:44.384Z,101263.92
2023-03-29T04:51:13.067Z,101262.49
2023-03-29T04:53:41.961Z,101262.35
2023-03-29T04:56:10.439Z,101259.08
2023-03-29T04:58:38.820Z,101259.33
2023-03-29T05:01:07.521Z,101263.05
2023-03-29T05:03:36.090Z,101269.47
2023-03-29T05:06:09.034Z,101272.64
2023-03-29T05:08:39.454Z,101272.77
2023-03-29T05:11:09.671Z,101273.16
2023-03-29T05:13:38.444Z,101275.54
2023-03-29T05:16:08.175Z,101276.00
2023-03-29T05:18:36.606Z,101280.70
2023-03-29T05:21:05.484Z,101284.79
2023-03-29T05:23:34.692Z,101288.59
2023-03-29T05:26:04.209Z,101289.34
2023-03-29T05:28:34.013Z,101294.03
2023-03-29T05:31:04.744Z,101297.86
2023-03-29T05:33:33.959Z,101301.75
2023-03-29T05:36:11.411Z,101302.85
2023-03-29T05:38:40.973Z,101308.20
2023-03-29T05:41:09.219Z,101308.00
2023-03-29T05:43:38.213Z,101309.05
2023-03-29T05:46:07.700Z,101314.48
2023-03-29T05:48:36.709Z,101313.42
2023-03-29T05:51:05.455Z,101313.98
2023-03-29T05:53:33.697Z,101313.55
2023-03-29T05:56:02.591Z,101320.41
2023-03-29T05:58:31.053Z,101320.59
2023-03-29T06:01:00.828Z,101322.83
2023-03-29T06:03:30.224Z,101325.52
2023-03-29T06:06:00.818Z,101326.07
2023-03-29T06:08:29.487Z,101333.77
2023-03-29T06:11:06.542Z,101333.48
2023-03-29T06:13:35.370Z,101339.39
2023-03-29T06:16:04.652Z,101339.08
2023-03-29T06:18:33.683Z,101342.40
2023-03-29T06:21:03.135Z,101340.70
2023-03-29T06:23:32.173Z,101340.42
2023-03-29T06:26:00.532Z,101342.91
2023-03-29T06:28:29.124Z,101348.23
2023-03-29T06:31:03.078Z,101351.47
2023-03-29T06:33:34.377Z,101353.57
2023-03-29T06:36:02.664Z,101358.35
2023-03-29T06:38:31.345Z,101360.20
2023-03-29T06:41:04.573Z,101361.54
2023-03-29T06:43:33.442Z,101364.96
2023-03-29T06:46:02.251Z,101368.14
2023-03-29T06:48:30.697Z,101370.95
2023-03-29T06:50:59.087Z,101368.98
2023-03-29T06:53:28.373Z,101363.71
2023-03-29T06:55:57.162Z,101363.10
2023-03-29T06:58:25.542Z,101362.13
2023-03-29T07:00:54.151Z,101361.08
2023-03-29T07:03:23.851Z,101365.56
2023-03-29T07:05:53.238Z,101369.50
2023-03-29T07:08:22.674Z,101370.02
2023-03-29T07:10:52.988Z,101369.08
2023-03-29T07:13:21.251Z,101375.80
2023-03-29T07:15:49.798Z,101380.08
2023-03-29T07:18:18.740Z,101381.13
2023-03-29T07:20:48.732Z,101387.60
2023-03-29T07:23:18.351Z,101387.38
2023-03-29T07:25:47.356Z,101392.57
2023-03-29T07:28:15.726Z,101391.67
2023-03-29T07:30:44.096Z,101387.39
2023-03-29T07:33:12.451Z,101386.73
2023-03-29T07:35:43.770Z,101388.95
2023-03-29T07:38:12.202Z,101386.44
2023-03-29T07:40:40.586Z,101388.78
2023-03-29T07:43:09.779Z,101388.65
2023-03-29T07:45:38.076Z,101383.94
2023-03-29T07:48:07.328Z,101386.33
2023-03-29T07:50:35.736Z,101386.63
2023-03-29T07:53:04.577Z,101388.33
2023-03-29T07:55:33.114Z,101391.34
2023-03-29T07:58:01.897Z,101394.09
2023-03-29T08:00:30.353Z,101391.85
2023-03-29T08:02:59.193Z,101395.16
2023-03-29T08:05:40.110Z,101396.27
2023-03-29T08:08:10.284Z,101393.63
2023-03-29T08:10:39.692Z,101393.98
2023-03-29T08:13:09.396Z,101388.09
2023-03-29T08:15:39.651Z,101396.55
2023-03-29T08:18:08.571Z,101393.73
2023-03-29T08:20:37.044Z,101393.98
2023-03-29T08:23:05.661Z,101394.63
2023-03-29T08:25:35.483Z,101398.21
2023-03-29T08:28:04.295Z,101400.94
2023-03-29T08:30:33.479Z,101407.23
2023-03-29T08:33:01.873Z,101403.87
2023-03-29T08:35:30.334Z,101406.98
2023-03-29T08:37:58.710Z,101406.84
2023-03-29T08:40:30.273Z,101411.58
2023-03-29T08:43:02.322Z,101406.15
2023-03-29T08:45:41.421Z,101408.06
2023-03-29T08:48:23.391Z,101403.77
2023-03-29T08:50:54.679Z,101410.30
2023-03-29T08:53:37.217Z,101407.33
2023-03-29T08:56:09.790Z,101401.79
2023-03-29T08:58:38.577Z,101406.83
2023-03-29T09:01:09.451Z,101407.40
2023-03-29T09:03:45.782Z,101405.64
2023-03-29T09:06:14.670Z,101410.79
2023-03-29T09:08:46.428Z,101411.55
2023-03-29T09:11:28.335Z,101419.87
2023-03-29T09:14:02.851Z,101422.30
2023-03-29T09:16:44.129Z,101425.65
2023-03-29T09:19:21.729Z,101425.52
2023-03-29T09:22:07.207Z,101429.83
2023-03-29T09:25:21.784Z,101425.95
2023-03-29T09:28:06.536Z,101431.73
2023-03-29T09:30:43.099Z,101429.06
2023-03-29T09:33:23.462Z,101429.91
2023-03-29T09:36:02.446Z,101433.20
2023-03-29T09:38:32.357Z,101430.74
2023-03-29T09:41:19.322Z,101434.04
2023-03-29T09:43:49.548Z,101437.67
2023-03-29T09:46:42.393Z,101439.27
2023-03-29T09:49:17.793Z,101443.22
2023-03-29T09:51:48.787Z,101443.85
2023-03-29T09:54:17.384Z,101444.98
2023-03-29T09:56:45.666Z,101447.47
2023-03-29T09:59:14.330Z,101451.14
2023-03-29T10:01:46.996Z,101448.73
2023-03-29T10:04:17.096Z,101443.27
2023-03-29T10:06:50.738Z,101448.10
2023-03-29T10:09:24.340Z,101445.09
2023-03-29T10:11:56.969Z,101448.16
2023-03-29T10:14:37.251Z,101454.82
2023-03-29T10:17:14.069Z,101451.21
2023-03-29T10:19:51.846Z,101448.97
2023-03-29T10:22:24.865Z,101446.01
2023-03-29T10:24:55.095Z,101447.02
2023-03-29T10:27:29.475Z,101448.82
2023-03-29T10:30:00.223Z,101447.52
2023-03-29T10:32:31.599Z,101439.33
2023-03-29T10:35:14.981Z,101447.20
2023-03-29T10:37:44.503Z,101442.52
2023-03-29T10:40:24.573Z,101436.81
2023-03-29T10:42:57.865Z,101434.08
2023-03-29T10:45:31.925Z,101434.41
2023-03-29T10:48:00.370Z,101439.23
2023-03-29T10:50:34.575Z,101437.63
2023-03-29T10:53:05.117Z,101438.88
2023-03-29T10:55:41.259Z,101436.40
2023-03-29T10:58:15.778Z,101437.06
2023-03-29T11:00:54.267Z,101435.10
2023-03-29T11:04:04.488Z,101431.33
2023-03-29T11:07:13.480Z,101434.52
2023-03-29T11:10:01.213Z,101429.74
2023-03-29T11:13:08.710Z,101424.60
2023-03-29T11:15:55.218Z,101418.25
2023-03-29T11:18:38.145Z,101413.24
2023-03-29T11:21:17.160Z,101413.44
2023-03-29T11:23:48.414Z,101415.07
2023-03-29T11:26:27.345Z,101412.23
2023-03-29T11:29:23.169Z,101412.77
2023-03-29T11:31:51.809Z,101414.97
2023-03-29T11:34:39.986Z,101408.92
2023-03-29T11:37:18.116Z,101403.23
2023-03-29T11:40:06.050Z,101398.09
2023-03-29T11:42:36.465Z,101396.73
2023-03-29T11:45:06.436Z,101402.27
2023-03-29T11:47:37.862Z,101400.75
2023-03-29T11:50:15.845Z,101399.30
2023-03-29T11:52:51.919Z,101401.38
2023-03-29T11:55:24.000Z,101400.54
2023-03-29T11:58:01.859Z,101404.46
2023-03-29T12:00:37.692Z,101402.20
2023-03-29T12:03:49.122Z,101406.52
2023-03-29T12:06:32.255Z,101411.25
2023-03-29T12:09:25.799Z,101411.01
2023-03-29T12:12:11.479Z,101414.23
2023-03-29T12:14:50.028Z,101413.13
2023-03-29T12:17:29.500Z,101414.66
2023-03-29T12:20:07.747Z,101411.73
2023-03-29T12:22:37.869Z,101416.42
2023-03-29T12:25:09.724Z,101420.09
2023-03-29T12:27:47.055Z,101419.42
2023-03-29T12:30:37.312Z,101422.40
2023-03-29T12:33:15.887Z,101422.09
2023-03-29T12:36:16.662Z,101422.83
2023-03-29T12:38:45.673Z,101421.77
2023-03-29T12:41:19.360Z,101420.52
2023-03-29T12:43:48.464Z,101414.55
2023-03-29T12:46:20.182Z,101421.22
2023-03-29T12:48:53.283Z,101420.45
2023-03-29T12:51:28.868Z,101419.64
2023-03-29T12:54:07.504Z,101420.17
2023-03-29T12:56:41.743Z,101422.03
2023-03-29T12:59:40.903Z,101424.97
2023-03-29T13:02:15.341Z,101421.80
2023-03-29T13:04:51.531Z,101417.73
2023-03-29T13:07:23.036Z,101422.44
2023-03-29T13:09:57.558Z,101426.52
2023-03-29T13:12:32.161Z,101428.05
2023-03-29T13:15:23.189Z,101430.05
2023-03-29T13:18:00.542Z,101431.05
2023-03-29T13:20:53.443Z,101424.60
2023-03-29T13:23:39.649Z,101425.96
2023-03-29T13:26:29.832Z,101428.15
2023-03-29T13:29:22.790Z,101431.52
2023-03-29T13:32:09.492Z,101432.70
2023-03-29T13:34:49.752Z,101435.77
2023-03-29T13:37:21.302Z,101439.33
2023-03-29T13:39:54.526Z,101448.25
2023-03-29T13:42:47.166Z,101457.60
2023-03-29T13:45:28.118Z,101457.30
2023-03-29T13:48:05.554Z,101461.02
2023-03-29T13:50:54.358Z,101469.23
2023-03-29T13:53:33.501Z,101476.67
2023-03-29T13:56:03.499Z,101488.86
2023-03-29T13:58:43.721Z,101491.83
2023-03-29T14:01:17.901Z,101493.70
2023-03-29T14:03:48.830Z,101496.19
2023-03-29T14:06:26.640Z,101501.83
2023-03-29T14:08:55.828Z,101505.55
2023-03-29T14:11:29.229Z,101496.88
2023-03-29T14:13:59.875Z,101490.81
2023-03-29T14:16:40.354Z,101489.48
2023-03-29T14:19:16.294Z,101487.88
2023-03-29T14:21:45.577Z,101490.30
2023-03-29T14:24:20.780Z,101489.95
2023-03-29T14:26:49.511Z,101491.52
2023-03-29T14:29:18.498Z,101489.39
2023-03-29T14:31:47.204Z,101487.15
2023-03-29T14:34:17.610Z,101484.98
2023-03-29T14:36:49.331Z,101485.48
2023-03-29T14:39:20.834Z,101490.06
2023-03-29T14:41:52.855Z,101489.59
2023-03-29T14:44:23.108Z,101495.05
2023-03-29T14:46:51.593Z,101486.70
2023-03-29T14:49:21.609Z,101487.73
2023-03-29T14:51:50.504Z,101490.85
2023-03-29T14:54:32.080Z,101494.35
2023-03-29T14:57:04.324Z,101495.37
2023-03-29T14:59:38.081Z,101501.79
2023-03-29T15:02:27.025Z,101505.80
2023-03-29T15:05:03.591Z,101505.14
2023-03-29T15:07:37.095Z,101506.80
2023-03-29T15:10:06.741Z,101513.22
2023-03-29T15:12:43.399Z,101512.08
2023-03-29T15:15:13.000Z,101514.45
2023-03-29T15:17:50.992Z,101514.41
2023-03-29T15:20:25.225Z,101515.59
2023-03-29T15:22:58.421Z,101514.39
2023-03-29T15:25:29.534Z,101515.33
2023-03-29T15:28:00.283Z,101518.94
2023-03-29T15:30:37.175Z,101522.03
2023-03-29T15:33:23.508Z,101529.14
2023-03-29T15:35:54.856Z,101531.98
2023-03-29T15:38:27.710Z,101537.36
2023-03-29T15:41:06.687Z,101539.39
2023-03-29T15:43:35.613Z,101543.89
2023-03-29T15:46:05.007Z,101547.05
2023-03-29T15:48:34.028Z,101548.39
2023-03-29T15:51:06.243Z,101552.34
2023-03-29T15:53:36.200Z,101555.29
2023-03-29T15:56:07.565Z,101563.31
2023-03-29T15:58:37.261Z,101568.33
2023-03-29T16:01:36.975Z,101576.85
2023-03-29T16:04:08.114Z,101581.30
2023-03-29T16:06:37.009Z,101587.75
2023-03-29T16:09:07.330Z,101588.83
2023-03-29T16:11:35.933Z,101588.73
2023-03-29T16:14:21.236Z,101589.83
2023-03-29T16:16:50.663Z,101592.09
2023-03-29T16:19:19.689Z,101595.25
2023-03-29T16:21:48.789Z,101599.57
2023-03-29T16:24:22.593Z,101603.83
2023-03-29T16:26:53.300Z,101605.36
2023-03-29T16:29:23.138Z,101607.80
2023-03-29T16:31:53.163Z,101610.08
2023-03-29T16:34:22.969Z,101613.58
2023-03-29T16:36:53.240Z,101615.73
2023-03-29T16:39:21.935Z,101615.80
2023-03-29T16:41:50.521Z,101619.11
2023-03-29T16:44:23.509Z,101621.42
2023-03-29T16:46:58.150Z,101630.23
2023-03-29T16:49:26.662Z,101636.29
2023-03-29T16:51:55.227Z,101642.11
2023-03-29T16:54:26.051Z,101647.42
2023-03-29T16:56:54.611Z,101652.04
2023-03-29T16:59:23.349Z,101653.88
2023-03-29T17:01:51.983Z,101657.40
2023-03-29T17:04:20.656Z,101662.04
2023-03-29T17:06:49.098Z,101667.65
2023-03-29T17:09:17.890Z,101672.09
2023-03-29T17:11:46.554Z,101674.60
2023-03-29T17:14:15.069Z,101680.52
2023-03-29T17:16:43.577Z,101682.24
2023-03-29T17:19:12.437Z,101683.92
2023-03-29T17:21:41.424Z,101688.41
2023-03-29T17:24:10.220Z,101692.27
2023-03-29T17:26:38.897Z,101694.50
2023-03-29T17:29:07.277Z,101695.65
2023-03-29T17:31:36.908Z,101696.05
2023-03-29T17:34:05.270Z,101698.73
2023-03-29T17:36:33.958Z,101700.99
2023-03-29T17:39:02.957Z,101703.60
2023-03-29T17:41:31.629Z,101710.24
2023-03-29T17:44:01.385Z,101709.61
2023-03-29T17:46:29.736Z,101714.34
2023-03-29T17:48:59.433Z,101718.70
2023-03-29T17:51:28.151Z,101722.44
2023-03-29T17:53:57.435Z,101725.79
2023-03-29T17:56:26.825Z,101728.45
2023-03-29T17:58:55.312Z,101732.45
2023-03-29T18:01:23.836Z,101732.33
2023-03-29T18:03:52.679Z,101736.13
2023-03-29T18:06:21.262Z,101740.11
2023-03-29T18:08:49.848Z,101748.30
2023-03-29T18:11:22.826Z,101749.85
2023-03-29T18:13:52.684Z,101750.77
2023-03-29T18:16:22.550Z,101753.51
2023-03-29T18:18:51.891Z,101754.22
2023-03-29T18:21:20.447Z,101755.24
2023-03-29T18:23:50.268Z,101760.51
2023-03-29T18:26:18.949Z,101762.71
2023-03-29T18:28:47.781Z,101767.34
2023-03-29T18:31:16.449Z,101765.14
2023-03-29T18:33:44.804Z,101767.20
2023-03-29T18:36:13.807Z,101767.36
2023-03-29T18:38:44.122Z,101770.27
2023-03-29T18:41:13.952Z,101770.06
2023-03-29T18:43:43.449Z,101770.81
2023-03-29T18:46:12.472Z,101770.61
2023-03-29T18:48:41.439Z,101772.56
2023-03-29T18:51:11.748Z,101772.30
2023-03-29T18:53:42.290Z,101774.77
2023-03-29T18:56:11.494Z,101776.27
2023-03-29T18:58:40.080Z,101776.13
2023-03-29T19:01:09.913Z,101782.41
2023-03-29T19:03:38.400Z,101782.91
2023-03-29T19:06:08.185Z,101782.62
2023-03-29T19:08:39.019Z,101783.19
2023-03-29T19:11:09.829Z,101781.54
2023-03-29T19:13:38.027Z,101781.02
2023-03-29T19:16:06.578Z,101776.60
2023-03-29T19:18:35.294Z,101772.59
2023-03-29T19:21:04.084Z,101772.75
2023-03-29T19:23:32.365Z,101774.41
2023-03-29T19:26:05.853Z,101776.67
2023-03-29T19:28:35.005Z,101775.05
2023-03-29T19:31:04.919Z,101775.15
2023-03-29T19:33:33.383Z,101774.91
2023-03-29T19:36:02.392Z,101775.40
2023-03-29T19:38:31.036Z,101773.55
2023-03-29T19:40:59.434Z,101774.86
2023-03-29T19:43:27.815Z,101769.47
2023-03-29T19:45:56.588Z,101767.17
2023-03-29T19:48:25.013Z,101772.44
2023-03-29T19:50:53.553Z,101772.14
2023-03-29T19:53:23.327Z,101775.08
2023-03-29T19:55:52.656Z,101776.46
2023-03-29T19:58:22.017Z,101774.95
2023-03-29T20:00:53.514Z,101774.21
2023-03-29T20:03:22.301Z,101768.87
2023-03-29T20:05:51.701Z,101766.55
2023-03-29T20:08:19.979Z,101765.88
2023-03-29T20:10:48.474Z,101762.96
2023-03-29T20:13:24.482Z,101758.41
2023-03-29T20:16:00.321Z,101761.80
2023-03-29T20:18:28.861Z,101766.73
2023-03-29T20:20:57.343Z,101766.60
2023-03-29T20:23:25.820Z,101764.10
2023-03-29T20:25:54.728Z,101769.47
2023-03-29T20:28:23.827Z,101771.66
2023-03-29T20:30:53.315Z,101767.67
2023-03-29T20:33:22.286Z,101764.29
2023-03-29T20:35:50.876Z,101759.32
2023-03-29T20:38:19.373Z,101755.67
2023-03-29T20:40:49.391Z,101747.09
2023-03-29T20:43:20.544Z,101743.27
2023-03-29T20:45:53.630Z,101741.39
2023-03-29T20:48:24.468Z,101734.17
2023-03-29T20:50:52.746Z,101733.19
2023-03-29T20:53:21.317Z,101729.70
2023-03-29T20:55:49.908Z,101726.96
2023-03-29T20:58:18.388Z,101722.39
2023-03-29T21:00:48.727Z,101721.36
2023-03-29T21:03:17.107Z,101719.00
2023-03-29T21:05:45.585Z,101721.91
2023-03-29T21:08:18.459Z,101717.52
2023-03-29T21:10:48.099Z,101716.45
2023-03-29T21:13:18.521Z,101714.09
2023-03-29T21:15:47.745Z,101717.48
2023-03-29T21:18:16.384Z,101716.85
2023-03-29T21:20:45.092Z,101717.39
2023-03-29T21:23:13.654Z,101715.02
2023-03-29T21:25:42.029Z,101716.68
2023-03-29T21:28:10.921Z,101721.08
2023-03-29T21:30:39.815Z,101722.58
2023-03-29T21:33:08.203Z,101726.38
2023-03-29T21:35:36.701Z,101729.48
2023-03-29T21:38:05.166Z,101730.48
2023-03-29T21:40:36.300Z,101731.27
2023-03-29T21:43:04.693Z,101727.20
2023-03-29T21:45:33.101Z,101726.42
2023-03-29T21:48:01.697Z,101728.09
2023-03-29T21:50:33.279Z,101725.85
2023-03-29T21:53:02.396Z,101727.38
2023-03-29T21:55:34.464Z,101718.93
2023-03-29T21:58:04.691Z,101721.21
2023-03-29T22:00:33.396Z,101722.67
2023-03-29T22:03:01.730Z,101721.02
2023-03-29T22:05:30.135Z,101719.55
2023-03-29T22:07:58.766Z,101720.58
2023-03-29T22:10:27.566Z,101721.43
2023-03-29T22:12:57.329Z,101717.14
2023-03-29T22:15:25.907Z,101714.81
2023-03-29T22:17:54.258Z,101716.95
2023-03-29T22:20:24.516Z,101720.41
2023-03-29T22:22:53.018Z,101714.79
2023-03-29T22:25:23.110Z,101720.09
2023-03-29T22:27:51.801Z,101722.00
2023-03-29T22:30:20.283Z,101722.61
2023-03-29T22:32:48.702Z,101722.63
2023-03-29T22:35:17.479Z,101725.20
2023-03-29T22:37:46.136Z,101724.77
2023-03-29T22:40:14.509Z,101722.52
2023-03-29T22:42:42.890Z,101721.80
2023-03-29T22:45:11.674Z,101723.70
2023-03-29T22:47:40.010Z,101721.69
2023-03-29T22:50:09.049Z,101720.60
2023-03-29T22:52:37.363Z,101715.33
2023-03-29T22:55:06.751Z,101715.45
2023-03-29T22:57:35.004Z,101713.27
2023-03-29T23:00:09.400Z,101717.73
2023-03-29T23:02:38.097Z,101712.98
2023-03-29T23:05:07.528Z,101712.73
2023-03-29T23:07:36.814Z,101709.19
2023-03-29T23:10:07.339Z,101705.98
2023-03-29T23:12:38.593Z,101709.42
2023-03-29T23:15:08.281Z,101703.25
2023-03-29T23:17:37.402Z,101695.56
2023-03-29T23:20:06.669Z,101692.44
2023-03-29T23:22:36.618Z,101689.65
2023-03-29T23:25:05.402Z,101686.94
2023-03-29T23:27:34.819Z,101685.12
2023-03-29T23:30:03.189Z,101691.95
2023-03-29T23:32:31.486Z,101692.27
2023-03-29T23:35:00.572Z,101699.50
2023-03-29T23:37:28.834Z,101698.95
2023-03-29T23:39:57.217Z,101702.36
2023-03-29T23:42:25.806Z,101700.92
2023-03-29T23:44:54.079Z,101702.28
2023-03-29T23:47:22.528Z,101705.86
2023-03-29T23:49:53.498Z,101705.40
2023-03-29T23:52:21.772Z,101705.19
2023-03-29T23:54:51.490Z,101695.42
2023-03-29T23:57:20.012Z,101696.79
2023-03-29T23:59:53.085Z,101696.13
